createdAt,value
2022-12-09T00:01:12.693Z,16.55
2022-12-09T00:03:40.278Z,17.00
2022-12-09T00:06:08.613Z,17.17
2022-12-09T00:08:36.134Z,17.08
2022-12-09T00:11:03.530Z,16.33
2022-12-09T00:13:30.933Z,16.15
2022-12-09T00:15:58.267Z,16.30
2022-12-09T00:18:26.051Z,16.30
2022-12-09T00:20:53.497Z,16.77
2022-12-09T00:23:20.990Z,16.80
2022-12-09T00:25:48.281Z,16.48
2022-12-09T00:28:15.834Z,14.95
2022-12-09T00:30:43.206Z,16.92
2022-12-09T00:33:10.572Z,14.90
2022-12-09T00:35:37.866Z,15.77
2022-12-09T00:38:05.447Z,16.40
2022-12-09T00:40:33.312Z,16.17
2022-12-09T00:43:00.654Z,15.88
2022-12-09T00:45:27.922Z,16.23
2022-12-09T00:47:55.243Z,17.35
2022-12-09T00:50:22.600Z,17.25
2022-12-09T00:52:49.874Z,15.82
2022-12-09T00:55:17.554Z,16.17
2022-12-09T00:57:45.084Z,17.30
2022-12-09T01:00:13.177Z,17.38
2022-12-09T01:02:40.856Z,16.83
2022-12-09T01:05:08.581Z,17.35
2022-12-09T01:07:37.645Z,16.92
2022-12-09T01:10:06.466Z,17.90
2022-12-09T01:12:34.529Z,17.63
2022-12-09T01:15:01.798Z,17.70
2022-12-09T01:17:29.502Z,17.15
2022-12-09T01:19:56.839Z,17.23
2022-12-09T01:22:24.360Z,17.48
2022-12-09T01:24:51.893Z,18.08
2022-12-09T01:27:19.163Z,18.48
2022-12-09T01:29:46.476Z,18.67
2022-12-09T01:32:13.926Z,18.55
2022-12-09T01:34:41.912Z,17.27
2022-12-09T01:37:09.248Z,19.48
2022-12-09T01:39:36.869Z,18.27
2022-12-09T01:42:04.841Z,18.83
2022-12-09T01:44:32.952Z,17.70
2022-12-09T01:47:01.744Z,17.13
2022-12-09T01:49:33.450Z,17.45
2022-12-09T01:52:06.723Z,17.02
2022-12-09T01:54:34.619Z,17.38
2022-12-09T01:57:01.935Z,17.25
2022-12-09T01:59:29.344Z,16.83
2022-12-09T02:01:58.563Z,17.52
2022-12-09T02:04:26.916Z,16.42
2022-12-09T02:06:54.265Z,17.30
2022-12-09T02:09:21.691Z,16.52
2022-12-09T02:11:55.425Z,16.48
2022-12-09T02:14:25.720Z,17.92
2022-12-09T02:17:01.897Z,15.88
2022-12-09T02:19:38.353Z,16.42
2022-12-09T02:22:07.004Z,16.30
2022-12-09T02:24:42.828Z,17.40
2022-12-09T02:27:24.603Z,15.68
2022-12-09T02:30:01.105Z,16.58
2022-12-09T02:32:28.653Z,15.80
2022-12-09T02:35:01.417Z,16.98
2022-12-09T02:37:49.300Z,16.35
2022-12-09T02:40:26.323Z,16.45
2022-12-09T02:42:55.226Z,16.92
2022-12-09T02:45:24.036Z,15.80
2022-12-09T02:47:52.769Z,16.60
2022-12-09T02:50:23.399Z,16.67
2022-12-09T02:52:52.129Z,16.30
2022-12-09T02:55:20.522Z,16.30
2022-12-09T02:57:48.720Z,16.33
2022-12-09T03:00:16.404Z,16.50
2022-12-09T03:02:45.872Z,17.27
2022-12-09T03:05:38.439Z,16.50
2022-12-09T03:08:09.193Z,16.00
2022-12-09T03:10:39.459Z,16.15
2022-12-09T03:13:29.884Z,16.65
2022-12-09T03:16:01.233Z,17.38
2022-12-09T03:18:30.703Z,16.77
2022-12-09T03:20:58.244Z,15.93
2022-12-09T03:23:27.297Z,16.17
2022-12-09T03:25:55.469Z,16.23
2022-12-09T03:28:32.057Z,16.65
2022-12-09T03:31:02.055Z,16.42
2022-12-09T03:33:29.998Z,18.07
2022-12-09T03:35:59.156Z,16.95
2022-12-09T03:38:28.206Z,17.25
2022-12-09T03:40:59.537Z,17.25
2022-12-09T03:43:30.436Z,17.30
2022-12-09T03:48:25.072Z,17.23
2022-12-09T03:51:04.127Z,18.60
2022-12-09T03:53:40.825Z,20.33
2022-12-09T03:56:37.523Z,18.92
2022-12-09T03:59:06.024Z,19.17
2022-12-09T04:01:33.746Z,17.85
2022-12-09T04:04:01.543Z,18.70
2022-12-09T04:06:28.929Z,20.70
2022-12-09T04:09:01.974Z,21.58
2022-12-09T04:11:29.761Z,22.00
2022-12-09T04:13:57.072Z,22.83
2022-12-09T04:16:24.504Z,22.33
2022-12-09T04:18:51.901Z,23.10
2022-12-09T04:21:19.314Z,21.58
2022-12-09T04:23:46.898Z,23.00
2022-12-09T04:26:15.648Z,21.05
2022-12-09T04:28:43.359Z,20.20
2022-12-09T04:31:12.911Z,20.25
2022-12-09T04:33:41.066Z,20.63
2022-12-09T04:36:10.307Z,21.63
2022-12-09T04:38:37.956Z,20.50
2022-12-09T04:41:06.374Z,20.40
2022-12-09T04:43:33.658Z,20.20
2022-12-09T04:46:01.923Z,20.55
2022-12-09T04:48:29.748Z,21.33
2022-12-09T04:50:57.196Z,21.38
2022-12-09T04:53:24.984Z,22.17
2022-12-09T04:55:59.929Z,21.88
2022-12-09T04:58:27.692Z,23.30
2022-12-09T05:00:55.365Z,23.63
2022-12-09T05:03:24.892Z,25.05
2022-12-09T05:05:52.811Z,27.65
2022-12-09T05:08:20.440Z,27.55
2022-12-09T05:10:50.022Z,27.98
2022-12-09T05:13:17.859Z,29.10
2022-12-09T05:15:45.174Z,29.88
2022-12-09T05:18:12.681Z,29.92
2022-12-09T05:20:41.214Z,30.27
2022-12-09T05:23:09.917Z,29.80
2022-12-09T05:25:37.909Z,27.83
2022-12-09T05:28:05.328Z,28.08
2022-12-09T05:30:32.995Z,31.40
2022-12-09T05:33:00.659Z,31.20
2022-12-09T05:35:28.015Z,33.10
2022-12-09T05:37:55.444Z,36.15
2022-12-09T05:40:24.295Z,33.15
2022-12-09T05:42:52.386Z,28.55
2022-12-09T05:45:19.699Z,27.23
2022-12-09T05:47:47.241Z,24.65
2022-12-09T05:50:15.156Z,22.55
2022-12-09T05:52:42.828Z,21.30
2022-12-09T05:55:11.167Z,25.13
2022-12-09T05:57:38.742Z,26.88
2022-12-09T06:00:07.783Z,25.80
2022-12-09T06:02:35.833Z,25.40
2022-12-09T06:05:04.066Z,24.23
2022-12-09T06:07:31.992Z,21.83
2022-12-09T06:09:59.556Z,17.17
2022-12-09T06:12:27.405Z,18.05
2022-12-09T06:14:54.973Z,17.83
2022-12-09T06:17:22.405Z,17.83
2022-12-09T06:19:49.929Z,17.63
2022-12-09T06:22:17.505Z,18.48
2022-12-09T06:24:45.026Z,19.20
2022-12-09T06:27:12.863Z,20.30
2022-12-09T06:29:40.240Z,18.23
2022-12-09T06:32:08.414Z,18.23
2022-12-09T06:34:35.908Z,18.38
2022-12-09T06:37:04.007Z,16.63
2022-12-09T06:39:31.506Z,19.10
2022-12-09T06:41:59.513Z,18.60
2022-12-09T06:44:26.906Z,19.05
2022-12-09T06:46:54.651Z,18.15
2022-12-09T06:49:23.118Z,18.30
2022-12-09T06:51:50.648Z,18.17
2022-12-09T06:54:18.171Z,15.30
2022-12-09T06:56:45.914Z,16.10
2022-12-09T06:59:13.242Z,16.88
2022-12-09T07:01:40.838Z,16.10
2022-12-09T07:04:08.550Z,15.82
2022-12-09T07:06:40.077Z,16.30
2022-12-09T07:09:09.652Z,15.57
2022-12-09T07:11:37.712Z,16.00
2022-12-09T07:14:05.576Z,14.73
2022-12-09T07:16:33.692Z,15.63
2022-12-09T07:19:01.915Z,13.02
2022-12-09T07:21:30.399Z,14.68
2022-12-09T07:24:02.813Z,15.98
2022-12-09T07:26:34.100Z,13.38
2022-12-09T07:29:05.230Z,14.70
2022-12-09T07:34:01.007Z,12.57
2022-12-09T07:36:30.353Z,15.18
2022-12-09T07:38:58.098Z,13.52
2022-12-09T07:41:25.970Z,13.60
2022-12-09T07:43:53.677Z,13.63
2022-12-09T07:46:22.569Z,12.70
2022-12-09T07:48:50.712Z,13.15
2022-12-09T07:51:18.743Z,13.48
2022-12-09T07:53:46.913Z,13.43
2022-12-09T07:56:15.659Z,13.88
2022-12-09T07:58:43.848Z,14.18
2022-12-09T08:01:16.705Z,15.40
2022-12-09T08:03:45.128Z,14.13
2022-12-09T08:06:14.010Z,14.93
2022-12-09T08:08:42.076Z,13.10
2022-12-09T08:11:12.727Z,12.20
2022-12-09T08:13:42.447Z,11.05
2022-12-09T08:16:11.493Z,10.70
2022-12-09T08:18:39.090Z,10.65
2022-12-09T08:21:08.217Z,8.80
2022-12-09T08:23:36.407Z,8.80
2022-12-09T08:26:06.076Z,9.70
2022-12-09T08:28:34.070Z,9.35
2022-12-09T08:31:07.061Z,8.82
2022-12-09T08:33:34.837Z,9.35
2022-12-09T08:36:03.282Z,9.95
2022-12-09T08:38:32.030Z,9.88
2022-12-09T08:40:59.870Z,10.07
2022-12-09T08:43:27.695Z,10.43
2022-12-09T08:45:55.375Z,10.82
2022-12-09T08:48:23.071Z,10.82
2022-12-09T08:50:50.502Z,10.00
2022-12-09T08:53:18.000Z,9.95
2022-12-09T08:55:45.635Z,11.73
2022-12-09T08:58:13.517Z,10.40
2022-12-09T09:00:41.151Z,10.63
2022-12-09T09:03:08.570Z,10.30
2022-12-09T09:05:36.378Z,10.00
2022-12-09T09:08:06.544Z,9.85
2022-12-09T09:10:34.227Z,10.70
2022-12-09T09:13:01.745Z,11.00
2022-12-09T09:15:29.645Z,12.13
2022-12-09T09:17:57.372Z,11.75
2022-12-09T09:20:24.900Z,11.50
2022-12-09T09:22:54.119Z,10.35
2022-12-09T09:25:25.568Z,10.93
2022-12-09T09:27:53.020Z,9.73
2022-12-09T09:30:20.457Z,11.45
2022-12-09T09:32:47.887Z,12.35
2022-12-09T09:35:15.610Z,11.15
2022-12-09T09:37:43.187Z,12.15
2022-12-09T09:40:11.521Z,12.18
2022-12-09T09:42:44.729Z,11.63
2022-12-09T09:45:14.729Z,11.43
2022-12-09T09:47:44.784Z,9.85
2022-12-09T09:50:30.958Z,8.80
2022-12-09T09:52:58.690Z,8.55
2022-12-09T09:55:35.414Z,9.35
2022-12-09T09:58:11.141Z,8.60
2022-12-09T10:01:04.247Z,9.27
2022-12-09T10:03:31.911Z,10.80
2022-12-09T10:06:02.892Z,9.80
2022-12-09T10:08:39.586Z,9.10
2022-12-09T10:11:26.258Z,9.95
2022-12-09T10:13:53.727Z,10.27
2022-12-09T10:16:42.577Z,11.05
2022-12-09T10:19:18.809Z,10.40
2022-12-09T10:21:46.980Z,13.40
2022-12-09T10:24:15.083Z,17.15
2022-12-09T10:26:43.100Z,16.65
2022-12-09T10:29:20.692Z,14.00
2022-12-09T10:31:48.355Z,10.82
2022-12-09T10:34:16.128Z,11.05
2022-12-09T10:36:44.557Z,10.18
2022-12-09T10:39:22.028Z,9.27
2022-12-09T10:42:11.345Z,7.25
2022-12-09T10:44:39.181Z,6.97
2022-12-09T10:47:08.204Z,6.53
2022-12-09T10:49:36.852Z,5.90
2022-12-09T10:52:05.440Z,4.97
2022-12-09T10:54:33.551Z,5.40
2022-12-09T10:57:09.697Z,5.45
2022-12-09T10:59:37.500Z,5.35
2022-12-09T11:02:11.217Z,5.80
2022-12-09T11:04:45.959Z,5.57
2022-12-09T11:07:13.599Z,6.10
2022-12-09T11:09:49.088Z,6.80
2022-12-09T11:12:33.423Z,8.27
2022-12-09T11:15:24.024Z,9.80
2022-12-09T11:17:57.672Z,10.10
2022-12-09T11:20:27.602Z,10.48
2022-12-09T11:23:06.570Z,10.32
2022-12-09T11:25:35.936Z,9.75
2022-12-09T11:28:23.075Z,9.40
2022-12-09T11:31:27.271Z,9.85
2022-12-09T11:34:01.282Z,9.80
2022-12-09T11:36:43.847Z,10.25
2022-12-09T11:39:18.269Z,12.90
2022-12-09T11:42:16.064Z,8.95
2022-12-09T11:45:07.151Z,12.85
2022-12-09T11:48:23.035Z,13.27
2022-12-09T11:50:24.682Z,14.80
2022-12-09T11:53:15.030Z,19.50
2022-12-09T11:56:04.157Z,18.83
2022-12-09T11:58:36.178Z,17.05
2022-12-09T12:01:10.726Z,15.68
2022-12-09T12:03:37.993Z,15.50
2022-12-09T12:06:07.435Z,17.50
2022-12-09T12:08:46.924Z,19.77
2022-12-09T12:11:17.951Z,18.90
2022-12-09T12:16:18.318Z,19.33
2022-12-09T12:18:50.857Z,16.38
2022-12-09T12:21:18.118Z,15.85
2022-12-09T12:23:45.349Z,16.20
2022-12-09T12:26:16.993Z,14.98
2022-12-09T12:28:56.632Z,13.45
2022-12-09T12:31:28.591Z,12.70
2022-12-09T12:36:55.204Z,16.08
2022-12-09T12:39:41.304Z,15.65
2022-12-09T12:42:14.462Z,15.65
2022-12-09T12:45:13.464Z,14.68
2022-12-09T12:47:49.881Z,13.70
2022-12-09T12:50:35.893Z,14.23
2022-12-09T12:53:25.035Z,13.77
2022-12-09T12:56:04.325Z,12.57
2022-12-09T12:58:31.590Z,16.92
2022-12-09T13:01:04.919Z,18.15
2022-12-09T13:03:35.338Z,17.52
2022-12-09T13:06:02.786Z,16.40
2022-12-09T13:08:36.116Z,13.73
2022-12-09T13:11:24.497Z,17.48
2022-12-09T13:13:56.929Z,11.55
2022-12-09T13:16:27.878Z,13.50
2022-12-09T13:18:57.592Z,15.05
2022-12-09T13:21:25.065Z,15.95
2022-12-09T13:24:10.878Z,20.42
2022-12-09T13:26:38.165Z,17.50
2022-12-09T13:29:14.689Z,17.30
2022-12-09T13:31:49.058Z,14.32
2022-12-09T13:34:23.768Z,14.90
2022-12-09T13:36:51.094Z,14.77
2022-12-09T13:39:36.987Z,18.45
2022-12-09T13:42:23.081Z,21.40
2022-12-09T13:44:50.329Z,18.48
2022-12-09T13:47:35.566Z,15.57
2022-12-09T13:50:06.310Z,14.15
2022-12-09T13:52:41.769Z,13.48
2022-12-09T13:55:25.134Z,13.02
2022-12-09T13:58:03.118Z,12.57
2022-12-09T14:00:30.625Z,12.65
2022-12-09T14:03:01.051Z,11.32
2022-12-09T14:05:31.942Z,10.95
2022-12-09T14:10:35.755Z,10.65
2022-12-09T14:13:04.693Z,12.25
2022-12-09T14:15:31.965Z,14.40
2022-12-09T14:18:00.831Z,14.45
2022-12-09T14:20:38.717Z,15.93
2022-12-09T14:23:09.786Z,12.90
2022-12-09T14:25:37.009Z,13.85
2022-12-09T14:28:10.460Z,13.00
2022-12-09T14:30:51.844Z,13.10
2022-12-09T14:33:23.262Z,12.57
2022-12-09T14:35:51.876Z,11.52
2022-12-09T14:38:19.136Z,11.65
2022-12-09T14:40:55.430Z,10.82
2022-12-09T14:43:22.668Z,12.48
2022-12-09T14:45:49.927Z,14.52
2022-12-09T14:48:20.206Z,13.07
2022-12-09T14:50:48.036Z,14.43
2022-12-09T14:53:22.993Z,12.63
2022-12-09T14:55:50.527Z,12.43
2022-12-09T14:58:22.179Z,12.50
2022-12-09T15:00:59.248Z,13.15
2022-12-09T15:03:39.618Z,13.23
2022-12-09T15:06:14.108Z,13.65
2022-12-09T15:08:42.718Z,13.07
2022-12-09T15:11:13.107Z,13.05
2022-12-09T15:13:42.141Z,13.38
2022-12-09T15:16:13.628Z,14.30
2022-12-09T15:18:41.664Z,14.00
2022-12-09T15:21:09.280Z,14.45
2022-12-09T15:23:38.827Z,13.50
2022-12-09T15:26:19.010Z,13.93
2022-12-09T15:28:50.237Z,10.50
2022-12-09T15:31:19.070Z,14.27
2022-12-09T15:33:52.287Z,15.70
2022-12-09T15:36:22.847Z,15.05
2022-12-09T15:39:00.011Z,14.90
2022-12-09T15:42:08.357Z,13.60
2022-12-09T15:44:38.379Z,16.80
2022-12-09T15:47:10.304Z,16.73
2022-12-09T15:49:41.975Z,11.00
2022-12-09T15:52:09.378Z,16.02
2022-12-09T15:54:38.155Z,17.90
2022-12-09T15:57:07.422Z,15.02
2022-12-09T15:59:37.583Z,16.60
2022-12-09T16:02:05.517Z,17.15
2022-12-09T16:04:36.186Z,15.57
2022-12-09T16:09:30.565Z,14.95
2022-12-09T16:11:57.788Z,15.70
2022-12-09T16:14:25.278Z,15.73
2022-12-09T16:16:57.804Z,16.95
2022-12-09T16:19:34.019Z,13.10
2022-12-09T16:22:18.402Z,12.55
2022-12-09T16:25:15.862Z,12.38
2022-12-09T16:27:48.814Z,12.05
2022-12-09T16:30:18.214Z,14.50
2022-12-09T16:32:46.405Z,14.40
2022-12-09T16:35:34.530Z,15.38
2022-12-09T16:38:02.258Z,15.93
2022-12-09T16:40:32.817Z,17.15
2022-12-09T16:45:32.583Z,16.42
2022-12-09T16:48:00.720Z,18.13
2022-12-09T16:50:32.141Z,17.13
2022-12-09T16:53:00.206Z,17.25
2022-12-09T16:55:28.770Z,16.95
2022-12-09T16:57:57.403Z,18.33
2022-12-09T17:00:24.869Z,17.67
2022-12-09T17:02:58.337Z,18.30
2022-12-09T17:05:25.738Z,17.65
2022-12-09T17:07:53.030Z,16.48
2022-12-09T17:10:20.284Z,14.82
2022-12-09T17:12:47.646Z,14.27
2022-12-09T17:15:16.185Z,16.08
2022-12-09T17:17:48.409Z,15.27
2022-12-09T17:20:16.416Z,16.10
2022-12-09T17:22:43.712Z,15.75
2022-12-09T17:25:11.054Z,23.80
2022-12-09T17:27:38.464Z,20.48
2022-12-09T17:30:05.968Z,12.73
2022-12-09T17:32:33.256Z,14.52
2022-12-09T17:35:00.496Z,13.52
2022-12-09T17:37:27.710Z,15.00
2022-12-09T17:40:06.459Z,15.88
2022-12-09T17:42:33.913Z,16.02
2022-12-09T17:45:01.167Z,15.30
2022-12-09T17:47:28.695Z,14.80
2022-12-09T17:49:56.076Z,13.70
2022-12-09T17:52:23.600Z,12.05
2022-12-09T17:54:50.866Z,11.75
2022-12-09T17:57:18.282Z,12.40
2022-12-09T17:59:45.494Z,14.20
2022-12-09T18:02:12.796Z,13.85
2022-12-09T18:04:40.082Z,14.32
2022-12-09T18:07:07.325Z,12.90
2022-12-09T18:09:34.639Z,12.77
2022-12-09T18:12:01.940Z,12.60
2022-12-09T18:14:29.247Z,12.43
2022-12-09T18:16:56.610Z,12.15
2022-12-09T18:19:25.096Z,12.65
2022-12-09T18:21:54.655Z,12.70
2022-12-09T18:24:22.385Z,13.17
2022-12-09T18:26:49.813Z,12.98
2022-12-09T18:29:17.105Z,13.13
2022-12-09T18:31:52.675Z,15.43
2022-12-09T18:34:21.459Z,13.63
2022-12-09T18:36:48.674Z,14.60
2022-12-09T18:39:16.346Z,13.85
2022-12-09T18:41:45.926Z,15.60
2022-12-09T18:44:14.160Z,15.97
2022-12-09T18:46:44.476Z,13.60
2022-12-09T18:49:13.166Z,17.80
2022-12-09T18:51:41.060Z,17.48
2022-12-09T18:54:09.103Z,16.45
2022-12-09T18:56:37.071Z,17.20
2022-12-09T18:59:07.099Z,15.05
2022-12-09T19:04:04.252Z,17.67
2022-12-09T19:06:32.952Z,20.23
2022-12-09T19:09:14.288Z,19.55
2022-12-09T19:11:42.428Z,20.52
2022-12-09T19:14:10.058Z,18.50
2022-12-09T19:16:37.931Z,17.80
2022-12-09T19:19:09.513Z,20.25
2022-12-09T19:21:37.590Z,19.95
2022-12-09T19:24:04.916Z,20.95
2022-12-09T19:26:33.120Z,20.17
2022-12-09T19:29:01.986Z,20.63
2022-12-09T19:31:31.025Z,20.73
2022-12-09T19:33:59.786Z,20.83
2022-12-09T19:36:27.989Z,20.17
2022-12-09T19:38:55.270Z,20.02
2022-12-09T19:41:24.769Z,19.52
2022-12-09T19:43:58.938Z,19.02
2022-12-09T19:46:26.898Z,17.15
2022-12-09T19:48:54.919Z,14.80
2022-12-09T19:51:22.599Z,16.88
2022-12-09T19:53:49.908Z,13.50
2022-12-09T19:56:18.780Z,13.73
2022-12-09T19:58:47.009Z,16.35
2022-12-09T20:01:16.138Z,18.08
2022-12-09T20:03:44.368Z,17.83
2022-12-09T20:06:12.871Z,16.75
2022-12-09T20:08:40.315Z,16.42
2022-12-09T20:11:11.824Z,16.40
2022-12-09T20:13:39.133Z,16.65
2022-12-09T20:16:07.427Z,15.02
2022-12-09T20:18:35.051Z,16.75
2022-12-09T20:21:06.138Z,16.52
2022-12-09T20:23:34.798Z,16.75
2022-12-09T20:26:06.094Z,18.38
2022-12-09T20:28:33.748Z,15.93
2022-12-09T20:31:08.593Z,14.50
2022-12-09T20:33:36.193Z,13.70
2022-12-09T20:36:07.454Z,14.15
2022-12-09T20:38:35.322Z,14.80
2022-12-09T20:41:03.716Z,15.52
2022-12-09T20:43:31.331Z,14.23
2022-12-09T20:45:58.653Z,14.13
2022-12-09T20:48:25.893Z,14.15
2022-12-09T20:50:53.169Z,12.73
2022-12-09T20:53:20.438Z,13.90
2022-12-09T20:55:55.630Z,13.40
2022-12-09T20:58:23.421Z,13.98
2022-12-09T21:00:50.737Z,13.18
2022-12-09T21:03:18.450Z,14.30
2022-12-09T21:05:45.824Z,15.63
2022-12-09T21:08:13.145Z,13.68
2022-12-09T21:10:40.415Z,12.50
2022-12-09T21:13:07.691Z,12.38
2022-12-09T21:15:35.008Z,13.75
2022-12-09T21:18:02.276Z,13.65
2022-12-09T21:20:29.627Z,11.82
2022-12-09T21:23:31.851Z,12.63
2022-12-09T21:25:44.134Z,11.20
2022-12-09T21:28:11.449Z,11.00
2022-12-09T21:30:39.112Z,11.18
2022-12-09T21:33:06.466Z,11.73
2022-12-09T21:35:33.831Z,11.18
2022-12-09T21:38:01.167Z,10.93
2022-12-09T21:40:28.426Z,11.65
2022-12-09T21:42:55.659Z,11.65
2022-12-09T21:45:22.878Z,11.27
2022-12-09T21:47:50.168Z,11.82
2022-12-09T21:50:17.551Z,12.68
2022-12-09T21:52:44.838Z,13.43
2022-12-09T21:55:12.104Z,13.18
2022-12-09T21:57:39.342Z,14.73
2022-12-09T22:00:07.201Z,15.13
2022-12-09T22:02:34.779Z,16.27
2022-12-09T22:05:02.041Z,15.63
2022-12-09T22:07:29.313Z,14.48
2022-12-09T22:09:56.602Z,13.63
2022-12-09T22:12:23.832Z,13.73
2022-12-09T22:14:52.147Z,14.85
2022-12-09T22:17:19.398Z,14.18
2022-12-09T22:19:46.924Z,14.90
2022-12-09T22:22:14.158Z,17.45
2022-12-09T22:24:41.408Z,17.13
2022-12-09T22:27:09.019Z,16.88
2022-12-09T22:29:36.262Z,15.45
2022-12-09T22:32:03.575Z,15.77
2022-12-09T22:34:30.823Z,15.07
2022-12-09T22:36:59.236Z,15.80
2022-12-09T22:39:34.054Z,16.20
2022-12-09T22:42:01.305Z,16.50
2022-12-09T22:44:28.816Z,17.13
2022-12-09T22:46:56.148Z,14.95
2022-12-09T22:49:23.390Z,14.65
2022-12-09T22:51:50.620Z,15.88
2022-12-09T22:54:18.002Z,16.02
2022-12-09T22:56:48.042Z,16.60
2022-12-09T22:59:15.698Z,15.73
2022-12-09T23:01:44.477Z,15.75
2022-12-09T23:04:12.437Z,15.38
2022-12-09T23:06:40.836Z,15.82
2022-12-09T23:09:10.537Z,15.45
2022-12-09T23:11:37.792Z,15.07
2022-12-09T23:14:05.389Z,15.43
2022-12-09T23:16:32.709Z,14.45
2022-12-09T23:19:00.231Z,13.77
2022-12-09T23:21:35.159Z,14.38
2022-12-09T23:24:03.851Z,14.57
2022-12-09T23:26:32.096Z,14.65
2022-12-09T23:29:00.299Z,14.48
2022-12-09T23:31:29.223Z,13.82
2022-12-09T23:33:57.056Z,14.07
2022-12-09T23:36:25.886Z,13.07
2022-12-09T23:38:54.079Z,13.45
2022-12-09T23:41:22.400Z,13.45
2022-12-09T23:43:50.004Z,13.68
2022-12-09T23:46:19.579Z,12.25
2022-12-09T23:48:47.500Z,13.67
2022-12-09T23:51:19.329Z,12.00
2022-12-09T23:53:47.362Z,10.88
2022-12-09T23:56:15.955Z,11.00
2022-12-09T23:58:43.625Z,9.20
